Celebrity Solstice — 9HRJ9 — position and weather

sailwx.info

Track history (hours):
 
Tides and Currents Weather Stations Pressure Air Temp Water Temp Dewpoint Dewpoint Depression Visibility Wind Speed Wind Dir Waves Ship Positions

Celebrity Solstice

Last reported at 2019-Jul-22 10:00 UTC. Time now 2019-Jul-22 14:08 UTC.
Position N 56°48' W 134°24'.

Length 317 m; draft 9 m.

Type: Ship. MMSI: 249409000.

Wind from 330 at 9 knots

Barometer 1022.0 mb
Air temperature 13.9 ° C
Visibility: greater than 27.0 NM
Water temperature 13.5 ° C

Date/timePositionNaut miles runAvg speedWind from/ knotsBaromVisibWave heightAir tempDewpointWater temp
2019-Jul-22 10:00N 56°48' W 134°24'2424.0 330 / 91022.027.0 13.9 13.5
2019-Jul-22 09:00N 56°24' W 134°24'6713.4 010 / 211022.027.0 14.6 14.5
2019-Jul-22 04:00N 55°54' W 132°36'49 7.1 330 / 91015.010.8 19.5 0.119.1
2019-Jul-21 21:00N 55°18' W 131°36'30 4.1 300 / 61021.027.0 21.5 17.7
2019-Jul-21 13:35N 54°52' W 131°08'1320.6
2019-Jul-21 12:58N 54°40' W 131°13'920.1
2019-Jul-21 12:30N 54°30' W 131°13'1020.4
2019-Jul-21 12:00N 54°21' W 131°06'1020.4
2019-Jul-21 11:30N 54°11' W 131°02'1121.3
2019-Jul-21 11:00N 54°00' W 131°01'1121.1
2019-Jul-21 10:30N 53°50' W 130°59'1121.4
2019-Jul-21 10:01N 53°40' W 130°54'1121.4
2019-Jul-21 09:30N 53°29' W 130°48'1121.7
2019-Jul-21 09:01N 53°19' W 130°41'5268.4
2019-Jul-21 09:00N 53°24' W 130°42'1919.4 340 / 131022.027.0 15.8 17.5
2019-Jul-21 08:00N 53°06' W 130°30'4525.6 330 / 111023.010.8 15.9 18.1
2019-Jul-21 06:15N 52°24' W 130°08'621.9
2019-Jul-21 06:00N 52°18' W 130°05'1121.6
2019-Jul-21 05:30N 52°08' W 129°59'1121.7
2019-Jul-21 05:00N 51°58' W 129°52'1021.1
2019-Jul-21 04:31N 51°48' W 129°47'1020.7
2019-Jul-21 04:00N 51°39' W 129°41'1021.1
2019-Jul-21 03:31N 51°29' W 129°35'1120.9
2019-Jul-21 03:00N 51°19' W 129°29'1020.6
2019-Jul-21 02:30N 51°09' W 129°23'1020.9
2019-Jul-21 02:01N 50°60' W 129°17'1020.5
2019-Jul-21 01:30N 50°51' W 129°09'1020.5
2019-Jul-21 01:00N 50°42' W 128°59'10715.0
2019-Jul-21 01:00N 50°36' W 128°48'1 2.2 350 / 151021.010.8 14.0 16.0
2019-Jul-21 00:30N 50°35' W 128°49'1020.6
2019-Jul-21 00:00N 50°27' W 128°38'1020.3
2019-Jul-20 23:30N 50°20' W 128°27'1620.2
2019-Jul-20 22:42N 50°08' W 128°10'521.7
2019-Jul-20 22:27N 50°04' W 128°04'2758.4
2019-Jul-20 22:00N 49°48' W 127°30'2613.2 300 / 171026.027.0 16.8 18.5
2019-Jul-20 20:00N 49°30' W 127°00'2317.1 270 / 91026.027.0 17.0 18.8
2019-Jul-20 18:38N 49°15' W 126°33'920.8
2019-Jul-20 18:11N 49°10' W 126°21'420.6
2019-Jul-20 17:59N 49°07' W 126°16'1020.9
2019-Jul-20 17:30N 49°01' W 126°05'1121.0
2019-Jul-20 17:00N 48°54' W 125°52'1021.0
2019-Jul-20 16:30N 48°49' W 125°39'1121.3
2019-Jul-20 16:00N 48°43' W 125°25'1121.6
2019-Jul-20 15:30N 48°39' W 125°10'1121.9
2019-Jul-20 15:00N 48°34' W 124°55'1122.1
2019-Jul-20 14:30N 48°29' W 124°40'1122.0
2019-Jul-20 14:00N 48°25' W 124°24'201458.7
2019-Jul-20 14:00N 48°30' W 124°54'3164.2 050 / 41021.0 2.2 9.5 7.414.3
2019-Jul-20 13:30N 48°21' W 124°09'1121.4
2019-Jul-20 13:00N 48°18' W 123°54'1221.6
2019-Jul-20 12:28N 48°15' W 123°37'920.2
2019-Jul-20 12:00N 48°11' W 123°24'713.1
2019-Jul-20 11:28N 48°11' W 123°14'1020.6
2019-Jul-20 10:58N 48°12' W 122°59'1020.2
2019-Jul-20 10:29N 48°10' W 122°44'1020.3
2019-Jul-20 10:00N 48°01' W 122°37'6698.6
2019-Jul-20 10:00N 48°06' W 122°42'1633.6 330 / 61025.027.0 13.9 15.3
2019-Jul-20 09:30N 47°53' W 122°28'1020.6
2019-Jul-20 09:00N 47°42' W 122°27'510.9
2019-Jul-20 08:31N 47°38' W 122°23'0 0.5
2019-Jul-20 08:00N 47°38' W 122°23'0 0.0
2019-Jul-20 07:30N 47°38' W 122°23'0 0.0
2019-Jul-20 06:56N 47°38' W 122°23'0 0.0
2019-Jul-20 06:30N 47°38' W 122°23'0 0.0
2019-Jul-20 06:01N 47°38' W 122°23'0 0.0
2019-Jul-20 05:31N 47°38' W 122°23'0 0.0
2019-Jul-20 05:00N 47°38' W 122°23'0 0.0
2019-Jul-20 04:30N 47°38' W 122°23'0 0.0
2019-Jul-20 04:00N 47°38' W 122°23'0 0.0
2019-Jul-20 03:30N 47°38' W 122°23'0 0.4
2019-Jul-20 03:00N 47°38' W 122°23'2 4.9
2019-Jul-20 02:30N 47°38' W 122°27'510.5
2019-Jul-20 02:01N 47°43' W 122°27'611.3
2019-Jul-20 01:30N 47°49' W 122°27'1 2.9
2019-Jul-20 01:00N 47°50' W 122°27'0 0.6
2019-Jul-20 00:30N 47°50' W 122°27'611.5
2019-Jul-20 00:00N 47°44' W 122°26'714.2
2019-Jul-19 23:30N 47°37' W 122°25'1 2.6
2019-Jul-19 23:00N 47°38' W 122°23'0 0.0
2019-Jul-19 22:30N 47°38' W 122°23'0 0.0
2019-Jul-19 21:56N 47°38' W 122°23'0 0.0
2019-Jul-19 21:28N 47°38' W 122°23'0 0.0
2019-Jul-19 20:58N 47°38' W 122°23'0 0.0
2019-Jul-19 20:30N 47°38' W 122°23'4 7.4
2019-Jul-19 20:00N 47°36' W 122°18'498.9 270 / 21021.010.8 20.2 4.716.2
2019-Jul-19 19:57N 47°38' W 122°23'0 0.0
2019-Jul-19 19:29N 47°38' W 122°23'0 0.0
2019-Jul-19 19:00N 47°38' W 122°23'0 0.0
2019-Jul-19 18:27N 47°38' W 122°23'0 0.0
2019-Jul-19 17:58N 47°38' W 122°23'0 0.0
2019-Jul-19 17:28N 47°38' W 122°23'0 0.0
2019-Jul-19 16:58N 47°38' W 122°23'0 0.0
2019-Jul-19 16:28N 47°38' W 122°23'0 0.0
2019-Jul-19 15:58N 47°38' W 122°23'0 0.0
2019-Jul-19 15:28N 47°38' W 122°23'4 8.0
2019-Jul-19 15:00N 47°36' W 122°18'417.4 190 / 31025.027.0 14.9 15.8
2019-Jul-19 14:46N 47°38' W 122°23'0 0.0
2019-Jul-19 14:22N 47°38' W 122°23'0 0.0
2019-Jul-19 13:54N 47°38' W 122°23'0 0.0
2019-Jul-19 13:30N 47°38' W 122°23'0 0.0
2019-Jul-19 13:00N 47°38' W 122°23'1 2.2
2019-Jul-19 12:30N 47°37' W 122°24'612.0
2019-Jul-19 12:00N 47°43' W 122°28'714.4
2019-Jul-19 11:30N 47°50' W 122°28'913.5
2019-Jul-19 10:51N 47°58' W 122°35'514.0
2019-Jul-19 10:30N 48°02' W 122°39'713.1
2019-Jul-19 09:56N 48°09' W 122°43'714.3
2019-Jul-19 09:28N 48°11' W 122°53'511.3
2019-Jul-19 09:00N 48°06' W 122°54'8735.3 290 / 81018.0 5.4 13.7 5.414.3
2019-Jul-19 08:59N 48°12' W 123°03'713.9
2019-Jul-19 08:30N 48°11' W 123°13'714.0
2019-Jul-19 08:00N 48°10' W 123°23'611.9
2019-Jul-19 07:30N 48°14' W 123°29'816.5
2019-Jul-19 07:00N 48°22' W 123°25'4 7.2
2019-Jul-19 06:30N 48°25' W 123°24'0 0.2
2019-Jul-19 06:00N 48°25' W 123°23'0 0.0
2019-Jul-19 05:31N 48°25' W 123°23'0 0.0
2019-Jul-19 04:58N 48°25' W 123°23'0 0.0
2019-Jul-19 04:29N 48°25' W 123°23'0 0.0
2019-Jul-19 04:00N 48°25' W 123°23'0 0.0
2019-Jul-19 03:30N 48°25' W 123°23'4 7.2
2019-Jul-19 03:00N 48°24' W 123°18'42657.0 250 / 211021.010.8 14.0 16.0
2019-Jul-19 02:59N 48°25' W 123°23'0 0.0
2019-Jul-19 02:27N 48°25' W 123°23'0 0.0
2019-Jul-19 02:00N 48°25' W 123°23'0 0.0
2019-Jul-19 01:29N 48°25' W 123°23'0 0.0
2019-Jul-19 01:00N 48°25' W 123°23'4379.6
2019-Jul-19 01:00N 48°24' W 123°18'4 6.9 250 / 241022.027.0 18.1 15.1
2019-Jul-19 00:28N 48°25' W 123°23'0 0.0
2019-Jul-19 00:01N 48°25' W 123°23'2 3.2
2019-Jul-18 23:31N 48°24' W 123°25'713.6
2019-Jul-18 23:00N 48°17' W 123°25'714.6
2019-Jul-18 22:30N 48°14' W 123°35'816.4
2019-Jul-18 22:00N 48°14' W 123°47'917.7
2019-Jul-18 21:30N 48°15' W 124°00'918.3
2019-Jul-18 21:00N 48°19' W 124°13'111440.6
2019-Jul-18 21:00N 48°12' W 124°00'2040.6 310 / 171018.010.8 17.8 8.114.6
2019-Jul-18 20:30N 48°23' W 124°25'917.3
2019-Jul-18 20:00N 48°26' W 124°37'816.5
2019-Jul-18 19:30N 48°29' W 124°49'918.9
2019-Jul-18 19:00N 48°29' W 125°03'1020.0
2019-Jul-18 18:30N 48°31' W 125°18'1020.3
2019-Jul-18 18:00N 48°36' W 125°31'1020.2
2019-Jul-18 17:30N 48°41' W 125°44'1019.9
2019-Jul-18 17:01N 48°47' W 125°57'917.4
2019-Jul-18 16:30N 48°52' W 126°07'917.5
2019-Jul-18 16:00N 48°58' W 126°18'918.0
2019-Jul-18 15:30N 49°03' W 126°28'917.8
2019-Jul-18 15:00N 49°09' W 126°39'134361.9
2019-Jul-18 15:00N 49°00' W 126°24'2344.5 310 / 181021.010.8 15.0 17.0
2019-Jul-18 14:29N 49°15' W 126°50'4 8.4
2019-Jul-18 14:00N 49°18' W 126°54'2322.9 300 / 161022.010.8 15.4 18.1
2019-Jul-18 13:00N 49°30' W 127°24'3919.6 280 / 191022.010.8 15.2 17.9
2019-Jul-18 11:00N 49°54' W 128°12'1915.5 280 / 201015.0 5.4 13.9 7.718.0
2019-Jul-18 09:47N 50°07' W 128°32'2317.8
2019-Jul-18 08:29N 50°22' W 129°00'4 8.4
2019-Jul-18 08:00N 50°24' W 129°06'1724.4 260 / 241014.0 5.4 13.1 9.217.7
2019-Jul-18 07:18N 50°35' W 129°26'3213.7
2019-Jul-18 05:00N 50°54' W 130°06'5427.0 280 / 231021.010.8 12.0 14.0
2019-Jul-18 03:00N 51°36' W 131°00'15822.6 260 / 301015.0 5.4 15.8 15.9
2019-Jul-17 20:00N 53°48' W 133°24'8717.5 270 / 281002.0 5.4 14.4 17.0
2019-Jul-17 15:00N 55°12' W 134°06'2626.1 290 / 281021.010.8 12.0 14.0
2019-Jul-17 14:00N 55°36' W 134°24'2424.0 310 / 191002.0 5.4 13.0 16.0
2019-Jul-17 13:00N 56°00' W 134°24'1212.5 360 / 101002.0 5.4 13.3 14.4
2019-Jul-17 12:00N 56°12' W 134°30'6622.1 030 / 211002.010.8 13.2 15.0
2019-Jul-17 09:00N 57°18' W 134°42'8521.2 340 / 71001.0 5.4 14.610.016.4
2019-Jul-17 05:00N 58°42' W 135°06'3115.3 180 / 31017.010.8 14.0 17.0
2019-Jul-17 03:00N 59°12' W 135°18'12 2.4 120 / 51007.0 5.4 15.4 14.9
2019-Jul-16 22:00N 59°24' W 135°18'0 0.0 220 / 31004.010.8 15.4 15.4
2019-Jul-16 17:00N 59°24' W 135°18'12 3.0 020 / 11017.010.8 14.0 17.0
2019-Jul-16 13:00N 59°12' W 135°18'3718.3 150 / 111013.010.8 14.2 14.7
2019-Jul-16 11:00N 58°36' W 135°06'1515.2 170 / 121009.0 5.4 15.512.017.7
2019-Jul-16 10:00N 58°24' W 134°48'17 2.2 160 / 131009.0 5.4 15.211.516.8
2019-Jul-16 02:00N 58°12' W 134°24'3 0.8 120 / 101017.010.8 15.7 13.6
2019-Jul-15 22:00N 58°12' W 134°18'39 7.9 100 / 101012.010.8 16.8 13.5
2019-Jul-15 17:00N 57°42' W 133°30'2626.4 130 / 101017.010.8 11.0 13.0
2019-Jul-15 16:00N 57°24' W 132°54'18 8.8 320 / 21020.0 5.4
2019-Jul-15 14:00N 57°36' W 133°18'1414.2 170 / 31018.910.8 12.0 11.7
2019-Jul-15 13:00N 57°42' W 133°42'3130.7 050 / 131018.0 5.4
2019-Jul-15 12:00N 57°12' W 133°54'7 6.8 070 / 71014.0 5.4 14.310.115.5
2019-Jul-15 11:00N 57°06' W 134°00'2222.3 250 / 91014.0 5.4 14.4 15.4
2019-Jul-15 10:00N 56°48' W 134°24'47 9.4 180 / 171015.0 5.4 14.2 14.8
2019-Jul-15 05:00N 56°18' W 133°18'6120.2 310 / 51017.010.8 15.0 17.0
2019-Jul-15 02:00N 55°30' W 132°12'24 5.9 140 / 161017.810.8 17.8 19.8
2019-Jul-14 22:00N 55°18' W 131°36'0 0.0 150 / 141019.010.8 19.5 18.5
2019-Jul-14 18:00N 55°18' W 131°36'12 2.4 050 / 61021.010.8 20.0 22.0
2019-Jul-14 13:00N 55°12' W 131°18'2313.1 150 / 101022.0 5.4
2019-Jul-14 11:15N 54°50' W 131°08'1415.4
2019-Jul-14 10:20N 54°37' W 131°17'515.7
2019-Jul-14 10:00N 54°32' W 131°17'8566.3
2019-Jul-14 10:00N 54°24' W 131°12'1 1.8 230 / 101016.0 5.4 15.6 17.4
2019-Jul-14 09:30N 54°25' W 131°11'816.6
2019-Jul-14 09:01N 54°18' W 131°02'815.6
2019-Jul-14 08:30N 54°10' W 131°01'816.0
2019-Jul-14 08:00N 54°02' W 131°00'4224.7
2019-Jul-14 08:00N 54°06' W 131°00'1224.0 170 / 131016.0 5.4 16.5 18.1
2019-Jul-14 07:31N 53°54' W 131°00'815.8
2019-Jul-14 07:00N 53°47' W 130°59'815.6
2019-Jul-14 06:31N 53°39' W 130°55'815.6
2019-Jul-14 06:00N 53°31' W 130°52'3179.9
2019-Jul-14 06:00N 53°30' W 130°48'612.6 180 / 111021.010.8 15.0 17.0
2019-Jul-14 05:30N 53°24' W 130°48'916.6
2019-Jul-14 04:59N 53°16' W 130°41'3718.6
2019-Jul-14 03:00N 52°42' W 130°18'2613.2 170 / 121021.010.8 17.2 18.9
2019-Jul-14 01:00N 52°18' W 130°00'3818.8 190 / 131022.010.8 17.5 19.1
2019-Jul-13 23:00N 51°42' W 129°42'211.8 190 / 71017.010.8 18.3 18.8
2019-Jul-13 22:48N 51°44' W 129°44'1216.2
2019-Jul-13 22:03N 51°32' W 129°37'10175.2
2019-Jul-13 22:00N 51°24' W 129°30'9989.1 200 / 71017.010.8 18.212.518.6
2019-Jul-13 21:59N 51°31' W 129°36'1016.4
2019-Jul-13 21:23N 51°22' W 129°31'616.2
2019-Jul-13 21:00N 51°17' W 129°28'11659.7
2019-Jul-13 21:00N 51°06' W 129°24'3 5.9 220 / 81017.0 5.4 18.5 18.4
2019-Jul-13 20:30N 51°09' W 129°23'816.7
2019-Jul-13 20:00N 51°01' W 129°19'816.5
2019-Jul-13 19:30N 50°53' W 129°16'815.4
2019-Jul-13 19:00N 50°46' W 129°09'816.1
2019-Jul-13 18:29N 50°41' W 128°60'816.3
2019-Jul-13 17:59N 50°35' W 128°50'2018.0
2019-Jul-13 16:52N 50°21' W 128°28'2731.3
2019-Jul-13 16:00N 50°00' W 128°00'973.4 150 / 71021.0 5.4 14.0 16.0
2019-Jul-13 15:52N 50°07' W 128°09'2225.0
2019-Jul-13 15:00N 49°54' W 127°42'1716.7 110 / 51022.0 5.4 16.6 18.2
2019-Jul-13 14:00N 49°42' W 127°24'1716.7 110 / 61022.0 5.4 16.5 18.4
2019-Jul-13 13:00N 49°30' W 127°06'1716.7 110 / 91022.0 5.4 16.4 18.3
2019-Jul-13 12:00N 49°36' W 126°42'3625.7 100 / 71023.0 5.4 16.5 18.5
2019-Jul-13 10:35N 49°05' W 126°14'318.2
2019-Jul-13 10:26N 49°03' W 126°11'818.2
2019-Jul-13 10:00N 48°58' W 126°02'4363.6
2019-Jul-13 10:00N 48°54' W 126°00'613.1 050 / 21016.0 5.4 16.6 18.5
2019-Jul-13 09:30N 48°52' W 125°51'917.9
2019-Jul-13 09:00N 48°47' W 125°40'2114.4
2019-Jul-13 09:00N 48°48' W 125°42'1122.2 350 / 61017.010.8 16.3 18.5
2019-Jul-13 08:31N 48°41' W 125°29'918.3
2019-Jul-13 08:01N 48°36' W 125°18'4223.3
2019-Jul-13 08:00N 48°36' W 125°24'1225.8 340 / 71017.010.8 16.411.417.0
2019-Jul-13 07:31N 48°31' W 125°07'917.9
2019-Jul-13 07:01N 48°30' W 124°53'917.2
2019-Jul-13 06:31N 48°29' W 124°40'917.7
2019-Jul-13 06:01N 48°26' W 124°28'917.9
2019-Jul-13 05:31N 48°22' W 124°16'917.6
2019-Jul-13 04:59N 48°19' W 124°03'817.1
2019-Jul-13 04:29N 48°17' W 123°51'917.9
2019-Jul-13 04:00N 48°15' W 123°38'6738.6
2019-Jul-13 04:00N 48°12' W 123°30'3 5.9 260 / 191021.010.8 14.0 17.0
2019-Jul-13 03:30N 48°12' W 123°26'611.5
2019-Jul-13 03:00N 48°09' W 123°19'9803.3
2019-Jul-13 03:00N 48°12' W 123°06'1 1.2 280 / 281021.0 5.4
2019-Jul-13 02:28N 48°13' W 123°06'1117.7
2019-Jul-13 01:50N 48°12' W 122°49'618.6
2019-Jul-13 01:29N 48°08' W 122°41'918.5
2019-Jul-13 01:00N 47°60' W 122°36'024.5
2019-Jul-13 01:00N 48°00' W 122°36'918.8 360 / 121021.0 5.4
2019-Jul-13 00:31N 47°53' W 122°28'917.5
2019-Jul-13 00:00N 47°44' W 122°26'2155.8
2019-Jul-13 00:00N 47°42' W 122°24'5 9.2 010 / 121021.0 5.4
2019-Jul-12 23:29N 47°37' W 122°23'4 7.8
2019-Jul-12 23:00N 47°36' W 122°18'487.0 080 / 21016.010.8 22.5 16.7
2019-Jul-12 22:57N 47°38' W 122°23'0 0.0
2019-Jul-12 22:30N 47°38' W 122°23'0 0.0
2019-Jul-12 21:59N 47°38' W 122°23'0 0.0
2019-Jul-12 21:30N 47°38' W 122°23'0 0.0
2019-Jul-12 20:54N 47°38' W 122°23'0 0.0
2019-Jul-12 20:30N 47°38' W 122°23'0 0.0
2019-Jul-12 20:00N 47°38' W 122°23'0 0.0
2019-Jul-12 19:30N 47°38' W 122°23'0 0.0
2019-Jul-12 19:00N 47°38' W 122°23'0 0.0
2019-Jul-12 18:26N 47°38' W 122°23'0 0.0
2019-Jul-12 17:53N 47°38' W 122°23'0 0.0
2019-Jul-12 17:28N 47°38' W 122°23'0 0.0
2019-Jul-12 16:52N 47°38' W 122°23'0 0.0
2019-Jul-12 16:30N 47°38' W 122°23'4 7.5
2019-Jul-12 16:00N 47°36' W 122°18'496.8 310 / 11021.0 5.4 18.0 19.0
2019-Jul-12 15:57N 47°38' W 122°23'0 0.0
2019-Jul-12 15:30N 47°38' W 122°23'7731520.0
2019-Jul-12 15:00N 58°17' W 134°24'776465806.3
2019-Jul-12 15:00N 47°36' W 122°18'4 7.8 1024.010.8 17.1 15.8
2019-Jul-12 14:30N 47°38' W 122°23'0 0.0
2019-Jul-12 14:00N 47°38' W 122°23'4305.6
2019-Jul-12 14:00N 47°36' W 122°18'4 7.3 310 / 1 5.4
2019-Jul-12 13:28N 47°38' W 122°23'0 0.0
2019-Jul-12 13:01N 47°38' W 122°23'1 2.9
2019-Jul-12 12:31N 47°37' W 122°25'611.2
2019-Jul-12 12:01N 47°43' W 122°27'612.7
2019-Jul-12 11:30N 47°49' W 122°28'815.2
2019-Jul-12 11:00N 47°56' W 122°32'714.1
2019-Jul-12 10:30N 48°02' W 122°38'714.4
2019-Jul-12 10:01N 48°08' W 122°43'  
Track history (hours):
 
Tides and Currents Weather Stations Pressure Air Temp Water Temp Dewpoint Dewpoint Depression Visibility Wind Speed Wind Dir Waves Ship Positions

Celebrity Solstice

Last reported at 2019-Jul-22 10:00 UTC. Time now 2019-Jul-22 14:08 UTC.
Position N 56°48' W 134°24'.

Length 317 m; draft 9 m.

Type: Ship. MMSI: 249409000.

Wind from 330 at 9 knots

Barometer 1022.0 mb
Air temperature 13.9 ° C
Visibility: greater than 27.0 NM
Water temperature 13.5 ° C

Date/timePositionNaut miles runAvg speedWind from/ knotsBaromVisibWave heightAir tempDewpointWater temp
2019-Jul-22 10:00N 56°48' W 134°24'2424.0 330 / 91022.027.0 13.9 13.5
2019-Jul-22 09:00N 56°24' W 134°24'6713.4 010 / 211022.027.0 14.6 14.5
2019-Jul-22 04:00N 55°54' W 132°36'49 7.1 330 / 91015.010.8 19.5 0.119.1
2019-Jul-21 21:00N 55°18' W 131°36'30 4.1 300 / 61021.027.0 21.5 17.7
2019-Jul-21 13:35N 54°52' W 131°08'1320.6
2019-Jul-21 12:58N 54°40' W 131°13'920.1
2019-Jul-21 12:30N 54°30' W 131°13'1020.4
2019-Jul-21 12:00N 54°21' W 131°06'1020.4
2019-Jul-21 11:30N 54°11' W 131°02'1121.3
2019-Jul-21 11:00N 54°00' W 131°01'1121.1
2019-Jul-21 10:30N 53°50' W 130°59'1121.4
2019-Jul-21 10:01N 53°40' W 130°54'1121.4
2019-Jul-21 09:30N 53°29' W 130°48'1121.7
2019-Jul-21 09:01N 53°19' W 130°41'5268.4
2019-Jul-21 09:00N 53°24' W 130°42'1919.4 340 / 131022.027.0 15.8 17.5
2019-Jul-21 08:00N 53°06' W 130°30'4525.6 330 / 111023.010.8 15.9 18.1
2019-Jul-21 06:15N 52°24' W 130°08'621.9
2019-Jul-21 06:00N 52°18' W 130°05'1121.6
2019-Jul-21 05:30N 52°08' W 129°59'1121.7
2019-Jul-21 05:00N 51°58' W 129°52'1021.1
2019-Jul-21 04:31N 51°48' W 129°47'1020.7
2019-Jul-21 04:00N 51°39' W 129°41'1021.1
2019-Jul-21 03:31N 51°29' W 129°35'1120.9
2019-Jul-21 03:00N 51°19' W 129°29'1020.6
2019-Jul-21 02:30N 51°09' W 129°23'1020.9
2019-Jul-21 02:01N 50°60' W 129°17'1020.5
2019-Jul-21 01:30N 50°51' W 129°09'1020.5
2019-Jul-21 01:00N 50°42' W 128°59'10715.0
2019-Jul-21 01:00N 50°36' W 128°48'1 2.2 350 / 151021.010.8 14.0 16.0
2019-Jul-21 00:30N 50°35' W 128°49'1020.6
2019-Jul-21 00:00N 50°27' W 128°38'1020.3
2019-Jul-20 23:30N 50°20' W 128°27'1620.2
2019-Jul-20 22:42N 50°08' W 128°10'521.7
2019-Jul-20 22:27N 50°04' W 128°04'2758.4
2019-Jul-20 22:00N 49°48' W 127°30'2613.2 300 / 171026.027.0 16.8 18.5
2019-Jul-20 20:00N 49°30' W 127°00'2317.1 270 / 91026.027.0 17.0 18.8
2019-Jul-20 18:38N 49°15' W 126°33'920.8
2019-Jul-20 18:11N 49°10' W 126°21'420.6
2019-Jul-20 17:59N 49°07' W 126°16'1020.9
2019-Jul-20 17:30N 49°01' W 126°05'1121.0
2019-Jul-20 17:00N 48°54' W 125°52'1021.0
2019-Jul-20 16:30N 48°49' W 125°39'1121.3
2019-Jul-20 16:00N 48°43' W 125°25'1121.6
2019-Jul-20 15:30N 48°39' W 125°10'1121.9
2019-Jul-20 15:00N 48°34' W 124°55'1122.1
2019-Jul-20 14:30N 48°29' W 124°40'1122.0
2019-Jul-20 14:00N 48°25' W 124°24'201458.7
2019-Jul-20 14:00N 48°30' W 124°54'3164.2 050 / 41021.0 2.2 9.5 7.414.3
2019-Jul-20 13:30N 48°21' W 124°09'1121.4
2019-Jul-20 13:00N 48°18' W 123°54'1221.6
2019-Jul-20 12:28N 48°15' W 123°37'920.2
2019-Jul-20 12:00N 48°11' W 123°24'713.1
2019-Jul-20 11:28N 48°11' W 123°14'1020.6
2019-Jul-20 10:58N 48°12' W 122°59'1020.2
2019-Jul-20 10:29N 48°10' W 122°44'1020.3
2019-Jul-20 10:00N 48°01' W 122°37'6698.6
2019-Jul-20 10:00N 48°06' W 122°42'1633.6 330 / 61025.027.0 13.9 15.3
2019-Jul-20 09:30N 47°53' W 122°28'1020.6
2019-Jul-20 09:00N 47°42' W 122°27'510.9
2019-Jul-20 08:31N 47°38' W 122°23'0 0.5
2019-Jul-20 08:00N 47°38' W 122°23'0 0.0
2019-Jul-20 07:30N 47°38' W 122°23'0 0.0
2019-Jul-20 06:56N 47°38' W 122°23'0 0.0
2019-Jul-20 06:30N 47°38' W 122°23'0 0.0
2019-Jul-20 06:01N 47°38' W 122°23'0 0.0
2019-Jul-20 05:31N 47°38' W 122°23'0 0.0
2019-Jul-20 05:00N 47°38' W 122°23'0 0.0
2019-Jul-20 04:30N 47°38' W 122°23'0 0.0
2019-Jul-20 04:00N 47°38' W 122°23'0 0.0
2019-Jul-20 03:30N 47°38' W 122°23'0 0.4
2019-Jul-20 03:00N 47°38' W 122°23'2 4.9
2019-Jul-20 02:30N 47°38' W 122°27'510.5
2019-Jul-20 02:01N 47°43' W 122°27'611.3
2019-Jul-20 01:30N 47°49' W 122°27'1 2.9
2019-Jul-20 01:00N 47°50' W 122°27'0 0.6
2019-Jul-20 00:30N 47°50' W 122°27'611.5
2019-Jul-20 00:00N 47°44' W 122°26'714.2
2019-Jul-19 23:30N 47°37' W 122°25'1 2.6
2019-Jul-19 23:00N 47°38' W 122°23'0 0.0
2019-Jul-19 22:30N 47°38' W 122°23'0 0.0
2019-Jul-19 21:56N 47°38' W 122°23'0 0.0
2019-Jul-19 21:28N 47°38' W 122°23'0 0.0
2019-Jul-19 20:58N 47°38' W 122°23'0 0.0
2019-Jul-19 20:30N 47°38' W 122°23'4 7.4
2019-Jul-19 20:00N 47°36' W 122°18'498.9 270 / 21021.010.8 20.2 4.716.2
2019-Jul-19 19:57N 47°38' W 122°23'0 0.0
2019-Jul-19 19:29N 47°38' W 122°23'0 0.0
2019-Jul-19 19:00N 47°38' W 122°23'0 0.0
2019-Jul-19 18:27N 47°38' W 122°23'0 0.0
2019-Jul-19 17:58N 47°38' W 122°23'0 0.0
2019-Jul-19 17:28N 47°38' W 122°23'0 0.0
2019-Jul-19 16:58N 47°38' W 122°23'0 0.0
2019-Jul-19 16:28N 47°38' W 122°23'0 0.0
2019-Jul-19 15:58N 47°38' W 122°23'0 0.0
2019-Jul-19 15:28N 47°38' W 122°23'4 8.0
2019-Jul-19 15:00N 47°36' W 122°18'417.4 190 / 31025.027.0 14.9 15.8
2019-Jul-19 14:46N 47°38' W 122°23'0 0.0
2019-Jul-19 14:22N 47°38' W 122°23'0 0.0
2019-Jul-19 13:54N 47°38' W 122°23'0 0.0
2019-Jul-19 13:30N 47°38' W 122°23'0 0.0
2019-Jul-19 13:00N 47°38' W 122°23'1 2.2
2019-Jul-19 12:30N 47°37' W 122°24'612.0
2019-Jul-19 12:00N 47°43' W 122°28'714.4
2019-Jul-19 11:30N 47°50' W 122°28'913.5
2019-Jul-19 10:51N 47°58' W 122°35'514.0
2019-Jul-19 10:30N 48°02' W 122°39'713.1
2019-Jul-19 09:56N 48°09' W 122°43'714.3
2019-Jul-19 09:28N 48°11' W 122°53'511.3
2019-Jul-19 09:00N 48°06' W 122°54'8735.3 290 / 81018.0 5.4 13.7 5.414.3
2019-Jul-19 08:59N 48°12' W 123°03'713.9
2019-Jul-19 08:30N 48°11' W 123°13'714.0
2019-Jul-19 08:00N 48°10' W 123°23'611.9
2019-Jul-19 07:30N 48°14' W 123°29'816.5
2019-Jul-19 07:00N 48°22' W 123°25'4 7.2
2019-Jul-19 06:30N 48°25' W 123°24'0 0.2
2019-Jul-19 06:00N 48°25' W 123°23'0 0.0
2019-Jul-19 05:31N 48°25' W 123°23'0 0.0
2019-Jul-19 04:58N 48°25' W 123°23'0 0.0
2019-Jul-19 04:29N 48°25' W 123°23'0 0.0
2019-Jul-19 04:00N 48°25' W 123°23'0 0.0
2019-Jul-19 03:30N 48°25' W 123°23'4 7.2
2019-Jul-19 03:00N 48°24' W 123°18'42657.0 250 / 211021.010.8 14.0 16.0
2019-Jul-19 02:59N 48°25' W 123°23'0 0.0
2019-Jul-19 02:27N 48°25' W 123°23'0 0.0
2019-Jul-19 02:00N 48°25' W 123°23'0 0.0
2019-Jul-19 01:29N 48°25' W 123°23'0 0.0
2019-Jul-19 01:00N 48°25' W 123°23'4379.6
2019-Jul-19 01:00N 48°24' W 123°18'4 6.9 250 / 241022.027.0 18.1 15.1
2019-Jul-19 00:28N 48°25' W 123°23'0 0.0
2019-Jul-19 00:01N 48°25' W 123°23'2 3.2
2019-Jul-18 23:31N 48°24' W 123°25'713.6
2019-Jul-18 23:00N 48°17' W 123°25'714.6
2019-Jul-18 22:30N 48°14' W 123°35'816.4
2019-Jul-18 22:00N 48°14' W 123°47'917.7
2019-Jul-18 21:30N 48°15' W 124°00'918.3
2019-Jul-18 21:00N 48°19' W 124°13'111440.6
2019-Jul-18 21:00N 48°12' W 124°00'2040.6 310 / 171018.010.8 17.8 8.114.6
2019-Jul-18 20:30N 48°23' W 124°25'917.3
2019-Jul-18 20:00N 48°26' W 124°37'816.5
2019-Jul-18 19:30N 48°29' W 124°49'918.9
2019-Jul-18 19:00N 48°29' W 125°03'1020.0
2019-Jul-18 18:30N 48°31' W 125°18'1020.3
2019-Jul-18 18:00N 48°36' W 125°31'1020.2
2019-Jul-18 17:30N 48°41' W 125°44'1019.9
2019-Jul-18 17:01N 48°47' W 125°57'917.4
2019-Jul-18 16:30N 48°52' W 126°07'917.5
2019-Jul-18 16:00N 48°58' W 126°18'918.0
2019-Jul-18 15:30N 49°03' W 126°28'917.8
2019-Jul-18 15:00N 49°09' W 126°39'134361.9
2019-Jul-18 15:00N 49°00' W 126°24'2344.5 310 / 181021.010.8 15.0 17.0
2019-Jul-18 14:29N 49°15' W 126°50'4 8.4
2019-Jul-18 14:00N 49°18' W 126°54'2322.9 300 / 161022.010.8 15.4 18.1
2019-Jul-18 13:00N 49°30' W 127°24'3919.6 280 / 191022.010.8 15.2 17.9
2019-Jul-18 11:00N 49°54' W 128°12'1915.5 280 / 201015.0 5.4 13.9 7.718.0
2019-Jul-18 09:47N 50°07' W 128°32'2317.8
2019-Jul-18 08:29N 50°22' W 129°00'4 8.4
2019-Jul-18 08:00N 50°24' W 129°06'1724.4 260 / 241014.0 5.4 13.1 9.217.7
2019-Jul-18 07:18N 50°35' W 129°26'3213.7
2019-Jul-18 05:00N 50°54' W 130°06'5427.0 280 / 231021.010.8 12.0 14.0
2019-Jul-18 03:00N 51°36' W 131°00'15822.6 260 / 301015.0 5.4 15.8 15.9
2019-Jul-17 20:00N 53°48' W 133°24'8717.5 270 / 281002.0 5.4 14.4 17.0
2019-Jul-17 15:00N 55°12' W 134°06'2626.1 290 / 281021.010.8 12.0 14.0
2019-Jul-17 14:00N 55°36' W 134°24'2424.0 310 / 191002.0 5.4 13.0 16.0
2019-Jul-17 13:00N 56°00' W 134°24'1212.5 360 / 101002.0 5.4 13.3 14.4
2019-Jul-17 12:00N 56°12' W 134°30'6622.1 030 / 211002.010.8 13.2 15.0
2019-Jul-17 09:00N 57°18' W 134°42'8521.2 340 / 71001.0 5.4 14.610.016.4
2019-Jul-17 05:00N 58°42' W 135°06'3115.3 180 / 31017.010.8 14.0 17.0
2019-Jul-17 03:00N 59°12' W 135°18'12 2.4 120 / 51007.0 5.4 15.4 14.9
2019-Jul-16 22:00N 59°24' W 135°18'0 0.0 220 / 31004.010.8 15.4 15.4
2019-Jul-16 17:00N 59°24' W 135°18'12 3.0 020 / 11017.010.8 14.0 17.0
2019-Jul-16 13:00N 59°12' W 135°18'3718.3 150 / 111013.010.8 14.2 14.7
2019-Jul-16 11:00N 58°36' W 135°06'1515.2 170 / 121009.0 5.4 15.512.017.7
2019-Jul-16 10:00N 58°24' W 134°48'17 2.2 160 / 131009.0 5.4 15.211.516.8
2019-Jul-16 02:00N 58°12' W 134°24'3 0.8 120 / 101017.010.8 15.7 13.6
2019-Jul-15 22:00N 58°12' W 134°18'39 7.9 100 / 101012.010.8 16.8 13.5
2019-Jul-15 17:00N 57°42' W 133°30'2626.4 130 / 101017.010.8 11.0 13.0
2019-Jul-15 16:00N 57°24' W 132°54'18 8.8 320 / 21020.0 5.4
2019-Jul-15 14:00N 57°36' W 133°18'1414.2 170 / 31018.910.8 12.0 11.7
2019-Jul-15 13:00N 57°42' W 133°42'3130.7 050 / 131018.0 5.4
2019-Jul-15 12:00N 57°12' W 133°54'7 6.8 070 / 71014.0 5.4 14.310.115.5
2019-Jul-15 11:00N 57°06' W 134°00'2222.3 250 / 91014.0 5.4 14.4 15.4
2019-Jul-15 10:00N 56°48' W 134°24'47 9.4 180 / 171015.0 5.4 14.2 14.8
2019-Jul-15 05:00N 56°18' W 133°18'6120.2 310 / 51017.010.8 15.0 17.0
2019-Jul-15 02:00N 55°30' W 132°12'24 5.9 140 / 161017.810.8 17.8 19.8
2019-Jul-14 22:00N 55°18' W 131°36'0 0.0 150 / 141019.010.8 19.5 18.5
2019-Jul-14 18:00N 55°18' W 131°36'12 2.4 050 / 61021.010.8 20.0 22.0
2019-Jul-14 13:00N 55°12' W 131°18'2313.1 150 / 101022.0 5.4
2019-Jul-14 11:15N 54°50' W 131°08'1415.4
2019-Jul-14 10:20N 54°37' W 131°17'515.7
2019-Jul-14 10:00N 54°32' W 131°17'8566.3
2019-Jul-14 10:00N 54°24' W 131°12'1 1.8 230 / 101016.0 5.4 15.6 17.4
2019-Jul-14 09:30N 54°25' W 131°11'816.6
2019-Jul-14 09:01N 54°18' W 131°02'815.6
2019-Jul-14 08:30N 54°10' W 131°01'816.0
2019-Jul-14 08:00N 54°02' W 131°00'4224.7
2019-Jul-14 08:00N 54°06' W 131°00'1224.0 170 / 131016.0 5.4 16.5 18.1
2019-Jul-14 07:31N 53°54' W 131°00'815.8
2019-Jul-14 07:00N 53°47' W 130°59'815.6
2019-Jul-14 06:31N 53°39' W 130°55'815.6
2019-Jul-14 06:00N 53°31' W 130°52'3179.9
2019-Jul-14 06:00N 53°30' W 130°48'612.6 180 / 111021.010.8 15.0 17.0
2019-Jul-14 05:30N 53°24' W 130°48'916.6
2019-Jul-14 04:59N 53°16' W 130°41'3718.6
2019-Jul-14 03:00N 52°42' W 130°18'2613.2 170 / 121021.010.8 17.2 18.9
2019-Jul-14 01:00N 52°18' W 130°00'3818.8 190 / 131022.010.8 17.5 19.1
2019-Jul-13 23:00N 51°42' W 129°42'211.8 190 / 71017.010.8 18.3 18.8
2019-Jul-13 22:48N 51°44' W 129°44'1216.2
2019-Jul-13 22:03N 51°32' W 129°37'10175.2
2019-Jul-13 22:00N 51°24' W 129°30'9989.1 200 / 71017.010.8 18.212.518.6
2019-Jul-13 21:59N 51°31' W 129°36'1016.4
2019-Jul-13 21:23N 51°22' W 129°31'616.2
2019-Jul-13 21:00N 51°17' W 129°28'11659.7
2019-Jul-13 21:00N 51°06' W 129°24'3 5.9 220 / 81017.0 5.4 18.5 18.4
2019-Jul-13 20:30N 51°09' W 129°23'816.7
2019-Jul-13 20:00N 51°01' W 129°19'816.5
2019-Jul-13 19:30N 50°53' W 129°16'815.4
2019-Jul-13 19:00N 50°46' W 129°09'816.1
2019-Jul-13 18:29N 50°41' W 128°60'816.3
2019-Jul-13 17:59N 50°35' W 128°50'2018.0
2019-Jul-13 16:52N 50°21' W 128°28'2731.3
2019-Jul-13 16:00N 50°00' W 128°00'973.4 150 / 71021.0 5.4 14.0 16.0
2019-Jul-13 15:52N 50°07' W 128°09'2225.0
2019-Jul-13 15:00N 49°54' W 127°42'1716.7 110 / 51022.0 5.4 16.6 18.2
2019-Jul-13 14:00N 49°42' W 127°24'1716.7 110 / 61022.0 5.4 16.5 18.4
2019-Jul-13 13:00N 49°30' W 127°06'1716.7 110 / 91022.0 5.4 16.4 18.3
2019-Jul-13 12:00N 49°36' W 126°42'3625.7 100 / 71023.0 5.4 16.5 18.5
2019-Jul-13 10:35N 49°05' W 126°14'318.2
2019-Jul-13 10:26N 49°03' W 126°11'818.2
2019-Jul-13 10:00N 48°58' W 126°02'4363.6
2019-Jul-13 10:00N 48°54' W 126°00'613.1 050 / 21016.0 5.4 16.6 18.5
2019-Jul-13 09:30N 48°52' W 125°51'917.9
2019-Jul-13 09:00N 48°47' W 125°40'2114.4
2019-Jul-13 09:00N 48°48' W 125°42'1122.2 350 / 61017.010.8 16.3 18.5
2019-Jul-13 08:31N 48°41' W 125°29'918.3
2019-Jul-13 08:01N 48°36' W 125°18'4223.3
2019-Jul-13 08:00N 48°36' W 125°24'1225.8 340 / 71017.010.8 16.411.417.0
2019-Jul-13 07:31N 48°31' W 125°07'917.9
2019-Jul-13 07:01N 48°30' W 124°53'917.2
2019-Jul-13 06:31N 48°29' W 124°40'917.7
2019-Jul-13 06:01N 48°26' W 124°28'917.9
2019-Jul-13 05:31N 48°22' W 124°16'917.6
2019-Jul-13 04:59N 48°19' W 124°03'817.1
2019-Jul-13 04:29N 48°17' W 123°51'917.9
2019-Jul-13 04:00N 48°15' W 123°38'6738.6
2019-Jul-13 04:00N 48°12' W 123°30'3 5.9 260 / 191021.010.8 14.0 17.0
2019-Jul-13 03:30N 48°12' W 123°26'611.5
2019-Jul-13 03:00N 48°09' W 123°19'9803.3
2019-Jul-13 03:00N 48°12' W 123°06'1 1.2 280 / 281021.0 5.4
2019-Jul-13 02:28N 48°13' W 123°06'1117.7
2019-Jul-13 01:50N 48°12' W 122°49'618.6
2019-Jul-13 01:29N 48°08' W 122°41'918.5
2019-Jul-13 01:00N 47°60' W 122°36'024.5
2019-Jul-13 01:00N 48°00' W 122°36'918.8 360 / 121021.0 5.4
2019-Jul-13 00:31N 47°53' W 122°28'917.5
2019-Jul-13 00:00N 47°44' W 122°26'2155.8
2019-Jul-13 00:00N 47°42' W 122°24'5 9.2 010 / 121021.0 5.4
2019-Jul-12 23:29N 47°37' W 122°23'4 7.8
2019-Jul-12 23:00N 47°36' W 122°18'487.0 080 / 21016.010.8 22.5 16.7
2019-Jul-12 22:57N 47°38' W 122°23'0 0.0
2019-Jul-12 22:30N 47°38' W 122°23'0 0.0
2019-Jul-12 21:59N 47°38' W 122°23'0 0.0
2019-Jul-12 21:30N 47°38' W 122°23'0 0.0
2019-Jul-12 20:54N 47°38' W 122°23'0 0.0
2019-Jul-12 20:30N 47°38' W 122°23'0 0.0
2019-Jul-12 20:00N 47°38' W 122°23'0 0.0
2019-Jul-12 19:30N 47°38' W 122°23'0 0.0
2019-Jul-12 19:00N 47°38' W 122°23'0 0.0
2019-Jul-12 18:26N 47°38' W 122°23'0 0.0
2019-Jul-12 17:53N 47°38' W 122°23'0 0.0
2019-Jul-12 17:28N 47°38' W 122°23'0 0.0
2019-Jul-12 16:52N 47°38' W 122°23'0 0.0
2019-Jul-12 16:30N 47°38' W 122°23'4 7.5
2019-Jul-12 16:00N 47°36' W 122°18'496.8 310 / 11021.0 5.4 18.0 19.0
2019-Jul-12 15:57N 47°38' W 122°23'0 0.0
2019-Jul-12 15:30N 47°38' W 122°23'7731520.0
2019-Jul-12 15:00N 58°17' W 134°24'776465806.3
2019-Jul-12 15:00N 47°36' W 122°18'4 7.8 1024.010.8 17.1 15.8
2019-Jul-12 14:30N 47°38' W 122°23'0 0.0
2019-Jul-12 14:00N 47°38' W 122°23'4305.6
2019-Jul-12 14:00N 47°36' W 122°18'4 7.3 310 / 1 5.4
2019-Jul-12 13:28N 47°38' W 122°23'0 0.0
2019-Jul-12 13:01N 47°38' W 122°23'1 2.9
2019-Jul-12 12:31N 47°37' W 122°25'611.2
2019-Jul-12 12:01N 47°43' W 122°27'612.7
2019-Jul-12 11:30N 47°49' W 122°28'815.2
2019-Jul-12 11:00N 47°56' W 122°32'714.1
2019-Jul-12 10:30N 48°02' W 122°38'714.4
2019-Jul-12 10:01N 48°08' W 122°43'  

Dump ship's entire track history